Detall de PIREP

Printer-friendly versionPDF version

[2015/12/30 09:22:00]
Flight IATA:CT1004
Pilot Number:012
Company ICAO:CAT
Aircraft Type:C750/F
PAX:4
Departing Airport: EGPF
Destination Airport: LFMP
Alternate Airport:LEBL
Online: VATSIM
Route:FENIK UL612 RESMI UM728 KUKOR UY27 SIJAN
Flight Level:F490
No Slew and time accel
No pause
Crash detect
Detect pilot in Cockpit between each 30 and 45 minutes
09:22 Zero fuel Weight: 22904 Lbs, Fuel Weight: 7043 Lbs
09:22 VATSIM:EGPF 300850Z AUTO 22013KT 8000 -RA FEW011/// SCT018/// //////CB 10/09 Q0988 RERA
09:22 VATSIM:LFMP 300900Z AUTO VRB02KT 9999 FEW010 SCT017 BKN027 10/06 Q1025
09:22 X-MAS CHARTER
09:34 Parking Brakes off
09:39 Take-off
09:39 Take off Weight: 29838 Lbs
09:39 Wind: 193º @ 015 Knots Heading: 223º
09:39 POS N55º 52´ 11´´ W004º 26´ 13´´
09:39 Gear Up: 164 Knots
09:39 Flaps:3 at 164 Knots
09:40 Flaps:2 at 175 Knots
09:40 Flaps:0 at 180 Knots
09:54 Wind:219º@106 Knots Heading: 163º Ground Speed: 437 Knots Altitude 43005 ft
09:58 TOC
09:58 Fuel Weight: 6262 Lb
10:09 Wind:226º@080 Knots Heading: 165º Ground Speed: 473 Knots Altitude 48615 ft
10:24 Wind:230º@073 Knots Heading: 166º Ground Speed: 481 Knots Altitude 48933 ft
10:39 Wind:239º@058 Knots Heading: 147º Ground Speed: 495 Knots Altitude 49186 ft
10:54 Wind:248º@039 Knots Heading: 166º Ground Speed: 489 Knots Altitude 49268 ft
11:09 Wind:259º@030 Knots Heading: 180º Ground Speed: 491 Knots Altitude 49317 ft
11:14 TOD
11:14 Fuel Weight: 5020 Lb
11:24 Wind:315º@029 Knots Heading: 201º Ground Speed: 424 Knots Altitude 23628 ft
11:36 Flaps:2 at 230 Knots
11:37 Flaps:3 at 204 Knots
11:37 Gear Down: 191 Knots
11:38 Flaps:4 at 123 Knots
11:39 Wind:000º@000 Knots Heading: 294º Ground Speed: 144 Knots Altitude 2211 ft
11:39 Flaps:5 at 153 Knots
11:43 TouchDown:Rate -246 ft/min Speed: 109 Knots
11:43 VATSIM:LFMP 301130Z AUTO VRB02KT 9999 OVC030 12/07 Q1025
11:43 Land
11:43 Wind:000º@000 Knots
11:43 Heading: 328º
11:43 Flight Duration: 02:04
11:43 Landing Weight: 27583 Lbs
11:43 POS N42º 44´ 55´´ E002º 51´ 58´´
11:46 Parking brakes on
11:46 Block to Block Duration: 02:12
11:46 Final Fuel: 4651 Lbls
11:46 Spent Fuel: 2391 Lbls
11:46 Flight Length: 890 NM
11:46 TOD Land Length: 164 NM

Exportar CSV

Powered by Drupal - Modified by Danger4k